createdAt,value
2018-12-22T00:00:37.780Z,1.30
2018-12-22T00:03:07.007Z,1.10
2018-12-22T00:05:36.207Z,1.00
2018-12-22T00:08:05.424Z,1.00
2018-12-22T00:10:34.679Z,1.10
2018-12-22T00:13:03.958Z,0.97
2018-12-22T00:15:33.410Z,1.80
2018-12-22T00:18:02.508Z,1.00
2018-12-22T00:20:32.861Z,0.80
2018-12-22T00:23:02.224Z,0.83
2018-12-22T00:25:31.344Z,0.80
2018-12-22T00:28:01.559Z,1.13
2018-12-22T00:30:30.804Z,0.90
2018-12-22T00:32:59.913Z,0.90
2018-12-22T00:35:28.989Z,1.20
2018-12-22T00:37:58.110Z,0.90
2018-12-22T00:40:27.298Z,1.20
2018-12-22T00:42:56.459Z,1.00
2018-12-22T00:45:25.780Z,0.90
2018-12-22T00:47:54.915Z,0.80
2018-12-22T00:50:24.084Z,1.20
2018-12-22T00:52:53.193Z,1.83
2018-12-22T00:55:22.467Z,1.00
2018-12-22T00:57:51.653Z,1.30
2018-12-22T01:00:20.884Z,1.40
2018-12-22T01:02:50.019Z,1.53
2018-12-22T01:05:19.277Z,1.27
2018-12-22T01:07:48.448Z,1.20
2018-12-22T01:10:17.612Z,0.87
2018-12-22T01:12:46.754Z,1.43
2018-12-22T01:15:16.088Z,1.30
2018-12-22T01:17:45.185Z,1.37
2018-12-22T01:20:14.438Z,1.10
2018-12-22T01:22:43.549Z,1.00
2018-12-22T01:25:12.637Z,1.43
2018-12-22T01:27:41.759Z,1.43
2018-12-22T01:30:11.099Z,1.67
2018-12-22T01:32:41.161Z,1.40
2018-12-22T01:35:10.348Z,1.30
2018-12-22T01:37:39.848Z,1.17
2018-12-22T01:40:09.335Z,1.43
2018-12-22T01:42:38.657Z,1.00
2018-12-22T01:45:08.107Z,0.90
2018-12-22T01:47:37.310Z,1.20
2018-12-22T01:50:07.371Z,1.10
2018-12-22T01:52:36.620Z,1.00
2018-12-22T01:55:06.524Z,0.80
2018-12-22T01:57:35.720Z,1.10
2018-12-22T02:00:05.902Z,0.90
2018-12-22T02:02:35.150Z,1.00
2018-12-22T02:05:05.007Z,1.00
2018-12-22T02:07:34.190Z,0.80
2018-12-22T02:10:03.456Z,1.23
2018-12-22T02:12:32.568Z,1.37
2018-12-22T02:15:01.688Z,1.00
2018-12-22T02:17:30.948Z,0.90
2018-12-22T02:20:00.130Z,1.50
2018-12-22T02:22:29.557Z,0.93
2018-12-22T02:24:58.814Z,1.20
2018-12-22T02:27:28.090Z,2.23
2018-12-22T02:29:57.200Z,1.57
2018-12-22T02:32:26.688Z,1.50
2018-12-22T02:34:55.979Z,1.40
2018-12-22T02:37:25.082Z,1.00
2018-12-22T02:39:54.180Z,1.33
2018-12-22T02:42:23.360Z,1.70
2018-12-22T02:44:52.476Z,1.20
2018-12-22T02:47:21.596Z,1.47
2018-12-22T02:49:50.719Z,1.20
2018-12-22T02:52:19.832Z,1.27
2018-12-22T02:54:49.048Z,1.17
2018-12-22T02:57:18.168Z,1.30
2018-12-22T02:59:47.289Z,1.03
2018-12-22T03:02:16.477Z,0.83
2018-12-22T03:04:45.580Z,0.90
2018-12-22T03:07:14.821Z,1.10
2018-12-22T03:09:44.083Z,0.70
2018-12-22T03:12:13.168Z,0.73
2018-12-22T03:14:42.505Z,0.93
2018-12-22T03:17:12.158Z,0.90
2018-12-22T03:19:41.358Z,0.63
2018-12-22T03:22:10.532Z,0.83
2018-12-22T03:24:39.720Z,0.90
2018-12-22T03:27:09.235Z,1.00
2018-12-22T03:29:38.342Z,1.10
2018-12-22T03:32:07.526Z,1.50
2018-12-22T03:34:36.725Z,1.17
2018-12-22T03:37:06.573Z,1.20
2018-12-22T03:39:35.730Z,1.23
2018-12-22T03:42:05.732Z,1.03
2018-12-22T03:44:35.414Z,1.00
2018-12-22T03:47:04.701Z,1.00
2018-12-22T03:49:34.043Z,1.10
2018-12-22T03:52:03.487Z,1.27
2018-12-22T03:54:32.716Z,1.40
2018-12-22T03:57:01.909Z,1.33
2018-12-22T03:59:31.214Z,1.60
2018-12-22T04:02:00.410Z,1.70
2018-12-22T04:04:29.555Z,1.63
2018-12-22T04:06:58.713Z,1.50
2018-12-22T04:09:27.996Z,1.33
2018-12-22T04:11:57.258Z,1.00
2018-12-22T04:14:26.386Z,1.30
2018-12-22T04:16:56.048Z,0.93
2018-12-22T04:19:25.195Z,0.90
2018-12-22T04:21:54.675Z,1.00
2018-12-22T04:24:24.176Z,0.80
2018-12-22T04:26:53.650Z,0.80
2018-12-22T04:29:23.394Z,0.90
2018-12-22T04:31:52.674Z,1.00
2018-12-22T04:34:22.010Z,0.97
2018-12-22T04:36:51.364Z,0.73
2018-12-22T04:39:20.592Z,0.80
2018-12-22T04:41:49.757Z,0.73
2018-12-22T04:44:18.940Z,0.70
2018-12-22T04:46:48.096Z,0.70
2018-12-22T04:49:17.213Z,0.70
2018-12-22T04:51:46.340Z,1.00
2018-12-22T04:54:15.808Z,0.80
2018-12-22T04:56:44.926Z,0.80
2018-12-22T04:59:14.145Z,1.20
2018-12-22T05:01:43.258Z,0.80
2018-12-22T05:04:13.130Z,1.47
2018-12-22T05:06:42.304Z,0.80
2018-12-22T05:09:11.968Z,1.23
2018-12-22T05:11:41.088Z,1.10
2018-12-22T05:14:10.247Z,1.20
2018-12-22T05:16:39.900Z,1.00
2018-12-22T05:19:09.020Z,1.13
2018-12-22T05:21:38.133Z,1.10
2018-12-22T05:24:07.317Z,1.07
2018-12-22T05:26:36.596Z,0.90
2018-12-22T05:29:05.850Z,0.90
2018-12-22T05:31:34.993Z,0.80
2018-12-22T05:34:04.188Z,0.73
2018-12-22T05:36:33.324Z,0.90
2018-12-22T05:39:02.488Z,0.80
2018-12-22T05:41:31.618Z,1.00
2018-12-22T05:44:00.759Z,0.93
2018-12-22T05:46:29.876Z,0.80
2018-12-22T05:48:59.025Z,0.77
2018-12-22T05:51:28.212Z,0.90
2018-12-22T05:53:57.361Z,0.73
2018-12-22T05:56:26.473Z,0.70
2018-12-22T05:58:55.683Z,0.80
2018-12-22T06:01:24.842Z,0.83
2018-12-22T06:03:54.620Z,0.93
2018-12-22T06:06:23.822Z,0.70
2018-12-22T06:08:53.404Z,0.90
2018-12-22T06:11:22.691Z,0.70
2018-12-22T06:13:51.835Z,0.80
2018-12-22T06:16:20.954Z,0.67
2018-12-22T06:18:50.093Z,1.00
2018-12-22T06:21:19.888Z,0.90
2018-12-22T06:23:49.056Z,1.00
2018-12-22T06:26:18.247Z,0.90
2018-12-22T06:28:47.372Z,0.90
2018-12-22T06:31:16.504Z,0.80
2018-12-22T06:33:46.180Z,0.90
2018-12-22T06:36:15.424Z,0.73
2018-12-22T06:38:44.616Z,1.10
2018-12-22T06:41:13.815Z,0.83
2018-12-22T06:43:42.953Z,1.07
2018-12-22T06:46:12.064Z,0.93
2018-12-22T06:48:41.273Z,0.73
2018-12-22T06:51:10.399Z,0.80
2018-12-22T06:53:39.572Z,0.67
2018-12-22T06:56:08.697Z,0.90
2018-12-22T06:58:37.811Z,1.90
2018-12-22T07:01:07.108Z,0.73
2018-12-22T07:03:36.228Z,0.70
2018-12-22T07:06:05.417Z,0.83
2018-12-22T07:08:34.535Z,0.70
2018-12-22T07:11:03.782Z,0.83
2018-12-22T07:13:32.932Z,0.97
2018-12-22T07:16:02.032Z,1.00
2018-12-22T07:18:31.191Z,0.90
2018-12-22T07:21:00.379Z,0.77
2018-12-22T07:23:29.682Z,0.90
2018-12-22T07:25:58.896Z,1.07
2018-12-22T07:28:28.098Z,0.80
2018-12-22T07:30:57.241Z,0.77
2018-12-22T07:33:26.535Z,1.00
2018-12-22T07:35:55.768Z,0.93
2018-12-22T07:38:24.912Z,1.63
2018-12-22T07:40:54.047Z,1.30
2018-12-22T07:43:23.256Z,0.90
2018-12-22T07:45:52.448Z,1.13
2018-12-22T07:48:22.398Z,1.00
2018-12-22T07:50:51.528Z,0.90
2018-12-22T07:53:20.717Z,0.80
2018-12-22T07:55:49.861Z,1.10
2018-12-22T07:58:19.000Z,0.80
2018-12-22T08:00:51.087Z,0.87
2018-12-22T08:03:20.232Z,1.00
2018-12-22T08:05:49.448Z,0.70
2018-12-22T08:08:18.663Z,1.13
2018-12-22T08:10:47.864Z,1.17
2018-12-22T08:13:17.028Z,1.00
2018-12-22T08:15:52.876Z,1.20
2018-12-22T08:18:22.124Z,1.00
2018-12-22T08:20:51.415Z,0.70
2018-12-22T08:23:20.664Z,0.80
2018-12-22T08:25:49.898Z,1.20
2018-12-22T08:28:19.063Z,0.83
2018-12-22T08:30:48.308Z,1.00
2018-12-22T08:33:17.615Z,0.87
2018-12-22T08:35:46.736Z,1.20
2018-12-22T08:38:15.861Z,1.10
2018-12-22T08:40:45.127Z,1.00
2018-12-22T08:43:14.407Z,1.30
2018-12-22T08:45:43.648Z,0.97
2018-12-22T08:48:12.809Z,0.90
2018-12-22T08:50:42.047Z,1.20
2018-12-22T08:53:11.274Z,1.00
2018-12-22T08:55:40.386Z,1.20
2018-12-22T08:58:10.177Z,1.03
2018-12-22T09:00:39.387Z,1.77
2018-12-22T09:03:08.508Z,1.17
2018-12-22T09:05:38.353Z,1.03
2018-12-22T09:08:07.680Z,1.70
2018-12-22T09:10:36.804Z,1.50
2018-12-22T09:13:05.937Z,1.20
2018-12-22T09:15:35.501Z,1.70
2018-12-22T09:18:04.780Z,1.90
2018-12-22T09:20:34.448Z,1.80
2018-12-22T09:23:03.616Z,2.30
2018-12-22T09:25:46.377Z,1.57
2018-12-22T09:28:15.655Z,1.43
2018-12-22T09:30:44.919Z,2.80
2018-12-22T09:33:14.132Z,2.37
2018-12-22T09:35:43.426Z,1.10
2018-12-22T09:38:12.925Z,1.37
2018-12-22T09:40:42.111Z,1.00
2018-12-22T09:43:11.679Z,1.47
2018-12-22T09:45:41.179Z,1.10
2018-12-22T09:48:10.369Z,2.13
2018-12-22T09:50:39.628Z,1.57
2018-12-22T09:53:10.058Z,1.40
2018-12-22T09:55:39.327Z,0.90
2018-12-22T09:58:08.938Z,3.63
2018-12-22T10:00:38.105Z,1.40
2018-12-22T10:03:07.325Z,1.33
2018-12-22T10:08:21.721Z,1.50
2018-12-22T10:10:51.600Z,1.30
2018-12-22T10:13:20.836Z,1.77
2018-12-22T10:15:50.024Z,1.00
2018-12-22T10:18:19.279Z,1.10
2018-12-22T10:20:48.512Z,1.70
2018-12-22T10:23:18.044Z,1.20
2018-12-22T10:25:47.308Z,1.20
2018-12-22T10:28:16.601Z,1.53
2018-12-22T10:30:45.900Z,1.03
2018-12-22T10:33:15.118Z,2.07
2018-12-22T10:35:44.300Z,1.63
2018-12-22T10:38:13.484Z,1.70
2018-12-22T10:40:42.733Z,2.83
2018-12-22T10:43:11.914Z,1.63
2018-12-22T10:45:41.143Z,1.77
2018-12-22T10:48:10.340Z,1.13
2018-12-22T10:50:39.525Z,1.67
2018-12-22T10:53:08.838Z,1.93
2018-12-22T10:55:38.072Z,1.40
2018-12-22T10:58:07.252Z,1.90
2018-12-22T11:00:36.421Z,2.67
2018-12-22T11:03:05.747Z,2.57
2018-12-22T11:05:34.921Z,1.80
2018-12-22T11:08:04.217Z,2.33
2018-12-22T11:10:33.489Z,2.10
2018-12-22T11:13:03.426Z,1.97
2018-12-22T11:15:33.008Z,2.43
2018-12-22T11:18:02.244Z,1.80
2018-12-22T11:20:31.578Z,2.60
2018-12-22T11:23:01.141Z,2.13
2018-12-22T11:25:30.412Z,2.10
2018-12-22T11:27:59.585Z,1.77
2018-12-22T11:30:35.564Z,1.70
2018-12-22T11:33:04.799Z,1.93
2018-12-22T11:35:34.061Z,2.40
2018-12-22T11:38:03.197Z,2.17
2018-12-22T11:40:32.862Z,1.97
2018-12-22T11:43:02.005Z,1.87
2018-12-22T11:45:31.316Z,1.23
2018-12-22T11:48:15.514Z,1.40
2018-12-22T11:50:44.732Z,1.10
2018-12-22T11:53:14.019Z,1.27
2018-12-22T11:55:43.284Z,1.57
2018-12-22T11:58:12.492Z,2.30
2018-12-22T12:00:42.236Z,1.17
2018-12-22T12:03:11.532Z,1.53
2018-12-22T12:05:41.012Z,2.07
2018-12-22T12:08:10.275Z,2.10
2018-12-22T12:10:39.511Z,1.13
2018-12-22T12:13:08.775Z,1.67
2018-12-22T12:15:47.351Z,1.30
2018-12-22T12:18:34.808Z,1.00
2018-12-22T12:21:04.508Z,1.00
2018-12-22T12:23:33.676Z,0.83
2018-12-22T12:26:02.952Z,0.90
2018-12-22T12:28:32.134Z,0.73
2018-12-22T12:31:01.473Z,0.83
2018-12-22T12:33:30.801Z,0.90
2018-12-22T12:36:00.091Z,1.07
2018-12-22T12:38:29.284Z,0.97
2018-12-22T12:40:58.490Z,1.10
2018-12-22T12:43:27.827Z,1.63
2018-12-22T12:45:57.100Z,0.90
2018-12-22T12:48:27.761Z,0.90
2018-12-22T12:50:57.001Z,1.00
2018-12-22T12:53:26.163Z,1.07
2018-12-22T12:55:55.420Z,1.43
2018-12-22T12:58:24.696Z,1.10
2018-12-22T13:00:54.020Z,1.70
2018-12-22T13:03:23.285Z,0.90
2018-12-22T13:05:52.617Z,0.90
2018-12-22T13:08:21.942Z,1.30
2018-12-22T13:10:51.188Z,1.20
2018-12-22T13:13:34.859Z,1.20
2018-12-22T13:16:04.312Z,1.17
2018-12-22T13:18:37.488Z,1.30
2018-12-22T13:21:08.976Z,1.77
2018-12-22T13:23:38.996Z,1.20
2018-12-22T13:26:09.591Z,1.00
2018-12-22T13:28:38.824Z,1.50
2018-12-22T13:31:08.032Z,1.37
2018-12-22T13:33:38.643Z,1.40
2018-12-22T13:36:08.627Z,1.80
2018-12-22T13:38:45.372Z,1.30
2018-12-22T13:41:15.592Z,1.63
2018-12-22T13:43:44.897Z,1.43
2018-12-22T13:46:14.184Z,1.93
2018-12-22T13:48:43.842Z,1.20
2018-12-22T13:54:25.715Z,1.30
2018-12-22T13:56:55.239Z,1.50
2018-12-22T13:59:24.621Z,1.57
2018-12-22T14:02:00.436Z,1.53
2018-12-22T14:04:32.352Z,1.67
2018-12-22T14:07:01.837Z,2.20
2018-12-22T14:09:31.132Z,1.80
2018-12-22T14:12:00.400Z,1.63
2018-12-22T14:14:34.977Z,1.10
2018-12-22T14:17:13.200Z,1.10
2018-12-22T14:19:49.676Z,1.30
2018-12-22T14:22:18.839Z,1.00
2018-12-22T14:24:51.449Z,1.57
2018-12-22T14:27:21.524Z,1.87
2018-12-22T14:29:50.940Z,1.20
2018-12-22T14:32:26.909Z,1.40
2018-12-22T14:35:00.025Z,2.00
2018-12-22T14:37:29.291Z,0.93
2018-12-22T14:39:58.979Z,1.20
2018-12-22T14:42:28.464Z,1.00
2018-12-22T14:44:57.664Z,1.30
2018-12-22T14:47:27.104Z,0.80
2018-12-22T14:49:56.307Z,1.10
2018-12-22T14:52:25.566Z,1.03
2018-12-22T14:54:55.395Z,1.23
2018-12-22T14:57:25.920Z,1.20
2018-12-22T14:59:55.218Z,1.00
2018-12-22T15:02:25.490Z,1.10
2018-12-22T15:04:55.025Z,1.30
2018-12-22T15:07:24.631Z,2.93
2018-12-22T15:09:53.880Z,1.50
2018-12-22T15:12:23.104Z,1.97
2018-12-22T15:14:52.269Z,1.77
2018-12-22T15:17:21.512Z,2.00
2018-12-22T15:19:51.226Z,2.80
2018-12-22T15:22:20.475Z,2.27
2018-12-22T15:24:49.672Z,2.43
2018-12-22T15:27:18.927Z,2.43
2018-12-22T15:29:48.158Z,2.20
2018-12-22T15:32:17.419Z,2.53
2018-12-22T15:34:46.626Z,1.90
2018-12-22T15:37:15.876Z,2.30
2018-12-22T15:39:45.064Z,2.30
2018-12-22T15:42:14.300Z,3.37
2018-12-22T15:44:43.707Z,1.50
2018-12-22T15:47:12.895Z,1.70
2018-12-22T15:49:42.203Z,1.80
2018-12-22T15:52:11.513Z,2.50
2018-12-22T15:54:40.704Z,2.87
2018-12-22T15:57:09.942Z,2.10
2018-12-22T15:59:39.199Z,2.40
2018-12-22T16:02:08.796Z,2.17
2018-12-22T16:04:38.084Z,3.03
2018-12-22T16:07:07.344Z,4.00
2018-12-22T16:09:36.602Z,2.53
2018-12-22T16:12:06.387Z,4.30
2018-12-22T16:14:35.597Z,4.30
2018-12-22T16:17:04.873Z,4.57
2018-12-22T16:19:34.310Z,3.50
2018-12-22T16:22:03.555Z,2.80
2018-12-22T16:24:32.820Z,3.50
2018-12-22T16:27:02.072Z,5.23
2018-12-22T16:29:44.153Z,7.03
2018-12-22T16:32:13.795Z,12.57
2018-12-22T16:34:43.109Z,6.20
2018-12-22T16:37:12.927Z,4.00
2018-12-22T16:39:42.242Z,3.40
2018-12-22T16:42:11.425Z,2.30
2018-12-22T16:44:40.945Z,2.57
2018-12-22T16:47:10.144Z,4.23
2018-12-22T16:49:39.442Z,3.90
2018-12-22T16:52:08.951Z,3.33
2018-12-22T16:54:38.183Z,3.77
2018-12-22T16:57:07.394Z,4.23
2018-12-22T16:59:37.932Z,3.37
2018-12-22T17:02:52.544Z,3.90
2018-12-22T17:05:21.981Z,4.13
2018-12-22T17:07:51.287Z,6.60
2018-12-22T17:10:20.988Z,5.67
2018-12-22T17:12:50.184Z,9.20
2018-12-22T17:15:22.166Z,9.43
2018-12-22T17:17:50.742Z,7.47
2018-12-22T17:20:20.080Z,8.87
2018-12-22T17:23:05.126Z,10.27
2018-12-22T17:25:41.938Z,7.40
2018-12-22T17:28:11.174Z,7.00
2018-12-22T17:30:40.368Z,9.00
2018-12-22T17:33:18.917Z,7.60
2018-12-22T17:35:43.589Z,7.33
2018-12-22T17:38:12.875Z,8.10
2018-12-22T17:40:42.199Z,9.63
2018-12-22T17:43:11.868Z,11.13
2018-12-22T17:45:41.096Z,9.40
2018-12-22T17:48:11.229Z,8.33
2018-12-22T17:50:40.517Z,5.93
2018-12-22T17:53:09.824Z,11.40
2018-12-22T17:55:39.100Z,7.67
2018-12-22T17:58:09.092Z,5.33
2018-12-22T18:00:38.816Z,5.97
2018-12-22T18:03:10.956Z,5.10
2018-12-22T18:05:40.980Z,7.60
2018-12-22T18:08:10.282Z,6.50
2018-12-22T18:10:39.564Z,4.80
2018-12-22T18:13:08.813Z,3.63
2018-12-22T18:15:38.076Z,5.50
2018-12-22T18:18:07.318Z,5.93
2018-12-22T18:20:36.666Z,3.80
2018-12-22T18:23:05.853Z,4.73
2018-12-22T18:25:35.456Z,5.90
2018-12-22T18:28:04.818Z,4.20
2018-12-22T18:30:34.089Z,4.70
2018-12-22T18:33:03.676Z,4.30
2018-12-22T18:35:32.976Z,5.03
2018-12-22T18:38:02.206Z,4.43
2018-12-22T18:40:31.515Z,4.40
2018-12-22T18:43:00.688Z,5.40
2018-12-22T18:45:30.056Z,4.87
2018-12-22T18:47:59.236Z,5.90
2018-12-22T18:50:29.120Z,5.67
2018-12-22T18:52:58.419Z,4.90
2018-12-22T18:55:27.676Z,12.90
2018-12-22T18:57:59.656Z,5.70
2018-12-22T19:00:29.627Z,4.10
2018-12-22T19:02:59.015Z,5.80
2018-12-22T19:05:28.624Z,3.57
2018-12-22T19:08:05.070Z,3.77
2018-12-22T19:10:46.572Z,3.17
2018-12-22T19:13:16.190Z,3.40
2018-12-22T19:15:46.018Z,4.90
2018-12-22T19:18:15.245Z,3.83
2018-12-22T19:20:51.621Z,4.70
2018-12-22T19:23:23.620Z,3.33
2018-12-22T19:25:53.432Z,4.30
2018-12-22T19:28:22.602Z,4.43
2018-12-22T19:30:51.857Z,3.30
2018-12-22T19:33:21.402Z,4.20
2018-12-22T19:35:51.230Z,3.37
2018-12-22T19:38:20.626Z,2.23
2018-12-22T19:40:50.229Z,2.40
2018-12-22T19:43:19.448Z,2.63
2018-12-22T19:45:49.629Z,1.93
2018-12-22T19:48:18.981Z,2.47
2018-12-22T19:50:48.219Z,2.60
2018-12-22T19:53:17.514Z,3.03
2018-12-22T19:55:47.865Z,3.00
2018-12-22T19:58:17.097Z,2.67
2018-12-22T20:00:46.331Z,2.73
2018-12-22T20:03:15.556Z,3.03
2018-12-22T20:05:44.766Z,3.10
2018-12-22T20:08:14.552Z,2.70
2018-12-22T20:10:45.122Z,3.77
2018-12-22T20:13:14.996Z,3.27
2018-12-22T20:15:44.191Z,3.70
2018-12-22T20:18:14.264Z,3.43
2018-12-22T20:20:43.491Z,3.90
2018-12-22T20:23:12.715Z,3.07
2018-12-22T20:25:42.687Z,3.10
2018-12-22T20:28:12.756Z,3.33
2018-12-22T20:30:42.100Z,3.03
2018-12-22T20:33:11.257Z,4.70
2018-12-22T20:35:40.473Z,4.20
2018-12-22T20:38:09.677Z,3.43
2018-12-22T20:40:39.296Z,4.47
2018-12-22T20:43:08.486Z,3.30
2018-12-22T20:45:37.659Z,4.43
2018-12-22T20:48:06.928Z,4.33
2018-12-22T20:50:36.518Z,3.87
2018-12-22T20:53:05.900Z,3.30
2018-12-22T20:55:35.257Z,3.93
2018-12-22T20:58:04.806Z,5.17
2018-12-22T21:00:34.032Z,4.80
2018-12-22T21:03:03.265Z,5.17
2018-12-22T21:05:35.961Z,4.00
2018-12-22T21:08:06.106Z,4.77
2018-12-22T21:10:35.709Z,4.87
2018-12-22T21:13:05.136Z,3.77
2018-12-22T21:15:34.337Z,3.97
2018-12-22T21:18:03.611Z,4.93
2018-12-22T21:20:32.792Z,5.67
2018-12-22T21:23:02.614Z,5.70
2018-12-22T21:25:31.832Z,4.07
2018-12-22T21:28:01.092Z,4.50
2018-12-22T21:30:30.275Z,4.53
2018-12-22T21:32:59.506Z,4.60
2018-12-22T21:35:28.703Z,4.20
2018-12-22T21:37:58.314Z,4.70
2018-12-22T21:40:27.512Z,4.97
2018-12-22T21:42:57.237Z,3.73
2018-12-22T21:45:27.283Z,4.97
2018-12-22T21:47:56.537Z,3.20
2018-12-22T21:50:25.671Z,3.80
2018-12-22T21:52:54.900Z,4.47
2018-12-22T21:55:24.481Z,3.17
2018-12-22T21:57:53.576Z,3.90
2018-12-22T22:00:22.877Z,3.80
2018-12-22T22:02:52.092Z,3.23
2018-12-22T22:05:21.625Z,3.60
2018-12-22T22:07:50.934Z,3.80
2018-12-22T22:10:20.609Z,4.00
2018-12-22T22:12:50.819Z,5.13
2018-12-22T22:15:20.993Z,3.43
2018-12-22T22:17:50.251Z,3.50
2018-12-22T22:20:19.384Z,4.10
2018-12-22T22:22:48.867Z,3.60
2018-12-22T22:25:18.258Z,3.50
2018-12-22T22:27:47.624Z,3.20
2018-12-22T22:30:16.990Z,3.70
2018-12-22T22:32:46.342Z,3.90
2018-12-22T22:35:15.908Z,3.27
2018-12-22T22:37:45.171Z,4.60
2018-12-22T22:40:14.420Z,4.03
2018-12-22T22:42:43.679Z,2.70
2018-12-22T22:45:12.917Z,3.43
2018-12-22T22:47:42.144Z,5.30
2018-12-22T22:50:11.302Z,4.83
2018-12-22T22:52:40.715Z,3.97
2018-12-22T22:55:09.928Z,3.67
2018-12-22T22:57:39.144Z,4.47
2018-12-22T23:00:14.336Z,5.00
2018-12-22T23:02:43.451Z,3.47
2018-12-22T23:05:12.724Z,3.70
2018-12-22T23:07:41.836Z,3.83
2018-12-22T23:10:11.012Z,5.43
2018-12-22T23:12:40.229Z,3.27
2018-12-22T23:15:09.361Z,2.70
2018-12-22T23:17:39.332Z,2.73
2018-12-22T23:20:08.702Z,2.90
2018-12-22T23:22:38.143Z,2.93
2018-12-22T23:25:07.752Z,3.53
2018-12-22T23:27:37.010Z,3.53
2018-12-22T23:30:07.815Z,3.90
2018-12-22T23:32:37.168Z,3.87
2018-12-22T23:35:06.847Z,2.63
2018-12-22T23:37:36.136Z,2.93
2018-12-22T23:40:05.858Z,3.23
2018-12-22T23:42:35.576Z,3.50
2018-12-22T23:45:05.348Z,6.43
2018-12-22T23:47:35.008Z,3.90
2018-12-22T23:50:05.476Z,2.67
2018-12-22T23:52:34.610Z,3.23
2018-12-22T23:55:03.830Z,2.17
2018-12-22T23:57:33.132Z,2.60
